This demonstration page uses our WeatherBlox Daily Observations layout. Learn more.

Left ArrowRight Arrow

38.83388, -104.82136

Hourly Observations for November 29, 2022

Temp ( °F °C ) Dew Point ( °F °C ) Humidity (%) Winds ( mph kmh ) Pressure ( in mb ) Visibility ( mi km ) Precip ( " mm )
12:55 am 00:55 Mostly Clear 25 -3.8 16 -9 67 67 NNW 16 26 28.50 965 10 16 0.00 0.00
1:55 am 01:55 Cloudy 23 -4.8 17 -8.2 77 77 NNW 17 28 28.50 965 10 16 0.00 0.00
2:29 am 02:29 Cloudy with Light Snow 23 -5 18 -8 79 79 NNW 17 28 28.49 965 10 16 0.00 0.00
2:31 am 02:31 Mostly Cloudy 23 -5 18 -8 79 79 NW 14 22 28.49 965 10 16 0.00 0.00
2:55 am 02:55 Mostly Cloudy 22 -5.8 17 -8.2 83 83 NW 14 22 28.50 965 10 16 0.01 0.13
3:55 am 03:55 Cloudy with Light Snow 21 -6.3 17 -8.1 87 87 NNW 12 19 28.53 966 10 16 0.01 0.13
4:10 am 04:10 Cloudy with Light Snow 19 -7 16 -9 86 86 NNW 18 30 28.55 967 9 14 0.00 0.00
4:30 am 04:30 Windy with Snow Likely 19 -7 16 -9 86 86 NNW 22 35 28.57 967 8 13 0.00 0.00
4:45 am 04:45 Windy with Snow Likely 19 -7 12 -11 73 73 NNW 21 33 28.57 967 9 14 0.00 0.00
4:55 am 04:55 Cloudy with Light Snow 19 -7.4 11 -11.6 72 72 NNW 14 22 28.57 968 9 14 0.01 0.13
5:25 am 05:25 Windy with Snow Likely 18 -8 12 -11 79 79 N 22 35 29.46 998 2 3 0.00 0.00
5:30 am 05:30 Windy with Snow Likely 18 -8 14 -10 85 85 N 21 33 N/A 1 1 0.00 0.00
5:35 am 05:35 Windy with Snow Likely 16 -9 14 -10 92 92 N 22 35 N/A 1 1 0.00 0.00
5:55 am 05:55 Partly Cloudy with Isolated Snow Showers 16 -8.9 13 -10.5 88 88 NNW 18 30 N/A 1 1 0.01 0.13
6:15 am 06:15 Partly Cloudy with Isolated Snow Showers 16 -9 12 -11 85 85 NNW 14 22 N/A 1 2 0.00 0.00
6:20 am 06:20 Partly Cloudy with Isolated Snow Showers 16 -9 12 -11 85 85 NNW 18 30 N/A 1 1 0.00 0.00
6:45 am 06:45 Partly Cloudy with Isolated Snow Showers 16 -9 12 -11 85 85 N 18 30 N/A 1 1 0.00 0.00
6:47 am 06:47 Mostly Clear with Snow 16 -9 12 -11 85 85 N 18 30 N/A 1 1 0.00 0.00
6:55 am 06:55 Mostly Clear with Snow 15 -9.2 13 -10.7 89 89 N 16 26 N/A 0 1 0.01 0.13
7:15 am 07:15 Partly Cloudy with Snow 16 -9 12 -11 85 85 N 17 28 N/A 0 1 0.00 0.00
7:16 am 07:16 Partly Cloudy with Heavy Snow 16 -9 12 -11 85 85 N 16 26 N/A 0 1 0.00 0.00
7:24 am 07:24 Partly Cloudy with Snow 14 -10 12 -11 92 92 N 14 22 N/A 0 1 0.00 0.00
7:29 am 07:29 Partly Cloudy with Isolated Snow Showers 14 -10 12 -11 92 92 N 8 13 N/A 0 1 0.00 0.00
7:34 am 07:34 Partly Cloudy with Isolated Snow Showers 14 -10 12 -11 92 92 N 9 15 N/A 1 1 0.00 0.00
7:44 am 07:44 Cloudy with Light Snow 14 -10 12 -11 92 92 N 10 17 N/A 1 2 0.00 0.00
7:55 am 07:55 Cloudy with Light Snow 15 -9.7 12 -10.9 91 91 N 14 22 N/A 2 2 0.01 0.13
8:50 am 08:50 Cloudy with Light Snow 14 -10 12 -11 92 92 NW 9 15 N/A 3 4 0.00 0.00
9:00 am 09:00 Cloudy with Light Snow 16 -9 12 -11 85 85 NNW 9 15 N/A 3 4 0.00 0.00
9:45 am 09:45 Cloudy with Light Snow 16 -9 10 -12 79 79 NNW 8 13 N/A 3 5 0.00 0.00
9:55 am 09:55 Cloudy with Light Snow 15 -9.7 10 -12.2 82 82 NNW 8 13 N/A 4 6 0.01 0.13
10:05 am 10:05 Cloudy with Light Snow 14 -10 10 -12 85 85 N 7 11 N/A 3 4 0.00 0.00
10:30 am 10:30 Cloudy with Light Snow 14 -10 10 -12 85 85 N 8 13 N/A 3 5 0.00 0.00
10:55 am 10:55 Cloudy with Light Snow 15 -9.5 10 -12.5 79 79 N 3 6 N/A 2 3 0.01 0.13
11:00 am 11:00 Cloudy with Light Snow 16 -9 10 -12 79 79 N 6 9 N/A 2 3 0.00 0.00
11:25 am 11:25 Cloudy with Light Snow 16 -9 10 -12 79 79 NNW 3 6 N/A 2 3 0.00 0.00
11:55 am 11:55 Cloudy with Light Snow 16 -9.1 12 -11.2 85 85 Calm N/A 1 2 0.01 0.13
12:00 pm 12:00 Cloudy with Light Snow 16 -9 12 -11 85 85 SE 3 6 N/A 1 2 0.00 0.00
12:05 pm 12:05 Cloudy with Light Snow 16 -9 12 -11 85 85 SE 5 7 N/A 1 2 0.00 0.00
12:20 pm 12:20 Cloudy with Light Snow 16 -9 14 -10 92 92 SE 7 11 N/A 1 2 0.00 0.00
12:25 pm 12:25 Cloudy with Light Snow 16 -9 12 -11 85 85 SE 8 13 N/A 1 2 0.00 0.00
12:40 pm 12:40 Cloudy with Light Snow 14 -10 12 -11 92 92 SE 8 13 N/A 1 1 0.00 0.00
12:55 pm 12:55 Cloudy with Light Snow 14 -9.9 13 -10.7 94 94 SE 9 15 N/A 1 1 0.01 0.13
1:00 pm 13:00 Cloudy with Light Snow 14 -10 12 -11 92 92 SE 8 13 N/A 1 2 0.00 0.00
1:10 pm 13:10 Cloudy with Light Snow 14 -10 14 -10 100 100 SE 9 15 N/A 1 1 0.00 0.00
1:20 pm 13:20 Cloudy with Light Snow 14 -10 12 -11 92 92 SE 12 19 N/A 1 2 0.00 0.00
1:30 pm 13:30 Cloudy with Light Snow 14 -10 14 -10 100 100 SE 12 19 N/A 3 4 0.00 0.00
1:35 pm 13:35 Cloudy with Light Snow 16 -9 14 -10 92 92 SE 12 19 N/A 3 5 0.00 0.00
1:55 pm 13:55 Cloudy with Light Snow 14 -10 13 -10.8 94 94 SE 10 17 N/A 3 5 0.01 0.13
2:55 pm 14:55 Cloudy with Light Snow 13 -10.4 12 -11.2 94 94 SE 7 11 N/A 9 14 0.01 0.13
3:55 pm 15:55 Cloudy with Light Snow 14 -9.9 13 -10.7 94 94 Calm N/A 8 13 0.01 0.13
4:05 pm 16:05 Cloudy with Light Snow 14 -10 12 -11 92 92 ENE 3 6 N/A 8 13 0.00 0.00
4:48 pm 16:48 Mostly Cloudy 12 -11 12 -11 100 100 Calm N/A 9 14 0.00 0.00
4:55 pm 16:55 Mostly Cloudy 13 -10.6 11 -11.4 94 94 NW 6 9 N/A 9 14 0.01 0.13
5:00 pm 17:00 Partly Cloudy 12 -11 12 -11 100 100 Calm N/A 10 16 0.00 0.00
5:55 pm 17:55 Clear 13 -10.7 11 -11.6 93 93 NW 5 7 N/A 10 16 0.00 0.00
6:55 pm 18:55 Clear 15 -9.7 9 -13 77 77 W 5 7 N/A 10 16 0.00 0.00
7:55 pm 19:55 Clear 13 -10.6 8 -13.1 82 82 Calm N/A 10 16 0.00 0.00
8:55 pm 20:55 Clear 13 -10.4 9 -12.8 82 82 W 3 6 N/A 10 16 0.00 0.00
9:55 pm 21:55 Clear 12 -11.3 5 -15.2 73 73 Calm N/A 10 16 0.00 0.00
10:55 pm 22:55 Clear 16 -8.8 8 -13.5 69 69 WNW 5 7 N/A 10 16 0.00 0.00
11:55 pm 23:55 Clear 12 -11.2 6 -14.5 76 76 SSW 5 7 N/A 10 16 0.00 0.00

Powered by AerisWeather